This is the latest recevied weather packets stored in our database for station/object F4BBI-13. If no packets are shown the sender has not sent any weather packets the latest 1 day(s).
| Time | Temp. | Humidity | Pressure | Rain* | Wind** | Luminosity | Snow |
|---|---|---|---|---|---|---|---|
| 1777745275 | 12.78° C | 51% | 953 hPa | 0 mm | - | 7 W/m² | - |
| 1777744671 | 13.33° C | 48% | 953 hPa | 0 mm | - | 11 W/m² | - |
| 1777744067 | 14.44° C | 45% | 953 hPa | 0 mm | - | 17 W/m² | - |
| 1777743463 | 14.44° C | 42% | 953 hPa | 0 mm | - | 22 W/m² | - |
| 1777742858 | 15° C | 40% | 953 hPa | 0 mm | - | 25 W/m² | - |
| 1777742254 | 15.56° C | 38% | 953 hPa | 0 mm | - | 39 W/m² | - |
| 1777741650 | 16.11° C | 38% | 953 hPa | 0 mm | - | 60 W/m² | - |
| 1777741045 | 16.11° C | 38% | 953 hPa | 0 mm | - | 56 W/m² | - |
| 1777740441 | 16.11° C | 37% | 953 hPa | 0 mm | - | 56 W/m² | - |
| 1777739837 | 16.67° C | 36% | 953 hPa | 0 mm | - | 57 W/m² | - |
| 1777739232 | 17.78° C | 34% | 954 hPa | 0 mm | - | 70 W/m² | - |
| 1777738628 | 18.89° C | 31% | 954 hPa | 0 mm | - | 60 W/m² | - |
| 1777738024 | 20.56° C | 29% | 954 hPa | 0 mm | - | 90 W/m² | - |
| 1777737420 | 21.67° C | 28% | 954 hPa | 0 mm | - | 109 W/m² | - |
| 1777736815 | 20.56° C | 29% | 954 hPa | 0 mm | - | 116 W/m² | - |
| 1777736211 | 21.67° C | 26% | 954 hPa | 0 mm | - | 142 W/m² | - |
| 1777735607 | 21.67° C | 27% | 954 hPa | 0 mm | - | 151 W/m² | - |
| 1777735003 | 23.33° C | 27% | 954 hPa | 0 mm | - | 266 W/m² | - |
| 1777734398 | 23.33° C | 26% | 954 hPa | 0 mm | - | 487 W/m² | - |
| 1777733794 | 21.67° C | 28% | 954 hPa | 0 mm | - | 487 W/m² | - |
| 1777733189 | 23.33° C | 26% | 955 hPa | 0 mm | - | 458 W/m² | - |
| 1777732585 | 22.22° C | 28% | 955 hPa | 0 mm | - | 431 W/m² | - |
| 1777731376 | 22.22° C | 27% | 955 hPa | 0 mm | - | 487 W/m² | - |
| 1777730772 | 21.11° C | 28% | 955 hPa | 0 mm | - | 355 W/m² | - |
| 1777730168 | 22.78° C | 28% | 955 hPa | 0 mm | - | 383 W/m² | - |
* Rain latest hour (hover to see other rain measurements)
** Current wind speed in m/s (hover to see current wind gust speed)